Airfield :
LOGIN :

Register | Disclaimer

   EN    FR    IT 

 










Legend :    VFR   Marginal VFR   IFR   Intensive IFR   Very Intensive IFR
Visi :
Ceiling :
>= 8 km
>= 3000ft
5 to 8 km
1000 to 3000 ft
1500m to 5 km
500 to 1000 ft
800 to 1500m
200 to 500 ft
< 800m
< 200 ft
Symbols :   Thunderstorms  Fog  Heavy snow  Heavy precipitations  Wind > 20 kt
SIGMETs :     Misc.  Thunderstorms  Icing  Turbulence  Mountain Waves  Volcanic Ashes






- Airport Elevation : 157 ft
- IATA code : LIL


LFQQ - Lille Lesquin

CURRENT METAR :
  • 230200Z AUTO 20008KT 9999 BKN010 OVC014 19/18 Q1016 TEMPO 2000 SHRA BKN006 BKN014TCU

EXPIRED METARs :
  • 230130Z AUTO 20008KT 9999 BKN014 BKN019 BKN025 19/17 Q1017 TEMPO 2000 SHRA BKN006 BKN014TCU
  • 230100Z AUTO 20005KT 9999 OVC033 19/17 Q1017 TEMPO 4000 -RA OVC013
  • 230030Z AUTO 20006KT 9999 OVC031 20/17 Q1017 TEMPO 4000 -RA OVC013
  • 230000Z AUTO 18005KT 9999 BKN035 BKN047 BKN068 19/17 Q1017 TEMPO 4000 -RA OVC013
  • 222330Z AUTO 19005KT 9999 FEW035 BKN100 18/16 Q1017 TEMPO 4000 -RA OVC013
  • 222300Z AUTO 19006KT 9999 FEW024 18/17 Q1017 TEMPO 3000 -RA OVC013
  • 222230Z AUTO 19005KT 9999 FEW023 SCT047 19/17 Q1017 TEMPO 3000 -RA OVC013
  • 222200Z AUTO 23006KT 9999 FEW025 BKN049 19/17 Q1018 NOSIG
  • 222130Z AUTO 22004KT 9999 FEW020 BKN056 19/16 Q1018 NOSIG

TAF TAF LFQQ
Valid from the 23 at 00:00 until the 24 at 06:00 UTC


222300Z 2300/2406 25007KT 9999 BKN045
TEMPO 2300/2308 4000 -RA OVC013
PROB40
TEMPO 2303/2308 2000 SHRA BKN006 BKN014TCU
PROB40
TEMPO 2308/2316 26015G25KT 4000 SHRA SCT014 BKN020TCU
BECMG 2316/2318 34008KT
TEMPO 2401/2406 2000 BR
ATIS : +33 3 20 16 19 54



MET'MAP, your aeronautical weather chart ! - Copyright ORBIFLY December 2007 - Disclaimer

ORBIFLY MET'MAP TEAM :

Programming & Development : Alexandra Zaïnal
Original concept : Baudouin d'Aumeries
Technical & hardware support : Manuel Goepfert
Assistance : Marc-Olivier Méhu




SOURCES & CREDITS :

   NOAA